Time;durP1;ratioP1;P1;durP2;ratioP2;P2;SDS_P1;SDS_P2;PMS_P1;PMS_P2;Temp;Humidity;BMP_temperature;BMP_pressure;BME280_temperature;BME280_humidity;BME280_pressure;Samples;Min_cycle;Max_cycle;Signal;HPM_P1;HPM_P2
2021/06/03 00:02:12;;;;;;;18.83;2.17;;;41.00;15.20;;;;;;5007858;28;21151;-69
2021/06/03 00:04:39;;;;;;;17.13;2.05;;;40.90;15.10;;;;;;4998065;28;20165;-69
2021/06/03 00:07:05;;;;;;;19.15;2.38;;;40.90;15.10;;;;;;5017639;28;20391;-70
2021/06/03 00:09:32;;;;;;;15.50;2.55;;;41.00;15.40;;;;;;4996184;28;20084;-70
2021/06/03 00:11:59;;;;;;;30.65;2.80;;;40.70;25.50;;;;;;5022465;28;20176;-68
2021/06/03 00:14:26;;;;;;;25.08;2.03;;;40.60;28.20;;;;;;5008621;28;20135;-68
2021/06/03 00:16:53;;;;;;;22.65;2.83;;;41.00;15.30;;;;;;5052190;28;20089;-69
2021/06/03 00:19:21;;;;;;;18.48;2.42;;;41.00;15.30;;;;;;5035495;28;20150;-69
2021/06/03 00:21:47;;;;;;;17.77;2.42;;;41.10;15.40;;;;;;5048024;28;20172;-68
2021/06/03 00:24:14;;;;;;;14.95;2.53;;;41.30;15.40;;;;;;5027900;28;20081;-69
2021/06/03 00:26:42;;;;;;;38.03;2.30;;;41.50;15.10;;;;;;5021443;28;20077;-69
2021/06/03 00:29:11;;;;;;;13.00;2.05;;;41.40;14.80;;;;;;5013063;28;20760;-68
2021/06/03 00:31:37;;;;;;;30.73;2.70;;;41.10;32.10;;;;;;5009977;28;20029;-69
2021/06/03 00:34:04;;;;;;;15.00;2.13;;;41.50;15.20;;;;;;4997328;28;20427;-69
2021/06/03 00:36:31;;;;;;;25.02;3.05;;;40.50;25.00;;;;;;5000027;28;20873;-69
2021/06/03 00:38:57;;;;;;;27.85;2.85;;;41.30;15.50;;;;;;5020727;28;20479;-69
2021/06/03 00:41:24;;;;;;;20.35;2.10;;;41.30;15.50;;;;;;4994133;28;20112;-69
2021/06/03 00:43:51;;;;;;;19.23;2.58;;;41.30;15.40;;;;;;5000084;28;20147;-68
2021/06/03 00:46:18;;;;;;;19.27;2.80;;;41.20;15.50;;;;;;5002031;28;20173;-69
2021/06/03 00:48:44;;;;;;;15.00;2.60;;;41.10;15.40;;;;;;5034267;28;21436;-69
2021/06/03 00:51:11;;;;;;;19.95;2.85;;;41.10;15.80;;;;;;5033251;28;20087;-68
2021/06/03 00:53:40;;;;;;;22.27;3.40;;;40.90;15.70;;;;;;5027171;28;20083;-68
2021/06/03 00:56:07;;;;;;;24.80;3.30;;;40.80;15.50;;;;;;5033619;28;20084;-68
2021/06/03 00:58:35;;;;;;;27.65;4.65;;;40.40;15.50;;;;;;5026752;28;21234;-69
2021/06/03 01:01:03;;;;;;;23.48;3.63;;;40.30;16.20;;;;;;5002957;28;21426;-69
2021/06/03 01:03:32;;;;;;;31.75;4.70;;;40.00;16.40;;;;;;5006939;28;20065;-68
2021/06/03 01:06:07;;;;;;;23.42;5.50;;;39.80;16.40;;;;;;4997604;28;20175;-68
2021/06/03 01:09:13;;;;;;;26.90;4.90;;;39.60;16.50;;;;;;5009038;28;20171;-67
2021/06/03 01:11:48;;;;;;;36.13;4.30;;;39.20;16.70;;;;;;5037408;28;20085;-65
2021/06/03 01:14:25;;;;;;;32.13;4.50;;;39.00;16.80;;;;;;5033980;28;20293;-65
2021/06/03 01:16:55;;;;;;;341.80;22.17;;;38.90;17.40;;;;;;5022666;28;20209;-66
2021/06/03 01:19:31;;;;;;;22.27;3.97;;;38.80;16.90;;;;;;5011854;28;20699;-66
2021/06/03 01:22:04;;;;;;;19.80;4.20;;;38.80;17.20;;;;;;4973242;28;20227;-68
2021/06/03 01:24:44;;;;;;;25.52;4.63;;;38.80;17.40;;;;;;4975510;28;20142;-67
2021/06/03 01:27:32;;;;;;;28.10;5.80;;;38.60;16.90;;;;;;4973009;28;20064;-68
2021/06/03 01:30:05;;;;;;;33.40;7.63;;;38.70;17.50;;;;;;4980437;28;20107;-68
2021/06/03 01:32:39;;;;;;;36.33;8.77;;;38.70;17.60;;;;;;4987884;28;20424;-68
2021/06/03 01:35:09;;;;;;;40.88;7.10;;;38.70;17.50;;;;;;4990450;28;20710;-68
2021/06/03 01:37:37;;;;;;;24.88;5.50;;;38.60;17.50;;;;;;5017580;28;20395;-67
2021/06/03 01:40:05;;;;;;;39.33;5.20;;;38.50;17.60;;;;;;4976734;28;20759;-69
2021/06/03 01:42:32;;;;;;;31.63;4.82;;;38.60;17.60;;;;;;4986181;28;20105;-68
2021/06/03 01:45:00;;;;;;;22.38;3.92;;;38.60;18.00;;;;;;4963813;28;20108;-67
2021/06/03 01:47:27;;;;;;;31.02;3.42;;;38.60;17.90;;;;;;4965027;28;20091;-68
2021/06/03 01:49:54;;;;;;;31.27;4.53;;;38.40;18.10;;;;;;4984743;28;20087;-69
2021/06/03 01:52:20;;;;;;;29.27;4.15;;;38.30;18.30;;;;;;4995506;28;20937;-67
2021/06/03 01:54:47;;;;;;;21.17;5.07;;;38.20;18.20;;;;;;4977043;28;20159;-68
2021/06/03 01:57:14;;;;;;;25.48;5.97;;;38.20;18.30;;;;;;4963626;28;20087;-67
2021/06/03 01:59:41;;;;;;;35.78;7.90;;;38.10;18.10;;;;;;4958344;28;20073;-67
2021/06/03 02:02:07;;;;;;;28.65;8.55;;;38.00;18.00;;;;;;4978164;28;20224;-67
2021/06/03 02:04:34;;;;;;;30.00;7.32;;;37.90;17.90;;;;;;4985973;28;20720;-69
2021/06/03 02:07:01;;;;;;;37.60;8.80;;;37.90;17.90;;;;;;4979830;28;20204;-68
2021/06/03 02:09:27;;;;;;;29.80;8.98;;;37.80;18.00;;;;;;4994732;28;21276;-68
2021/06/03 02:11:54;;;;;;;35.78;8.60;;;37.70;17.80;;;;;;4980472;28;20151;-68
2021/06/03 02:14:28;;;;;;;34.03;7.72;;;37.70;17.80;;;;;;4966787;28;20073;-67
2021/06/03 02:17:24;;;;;;;33.10;7.15;;;37.70;18.10;;;;;;4978103;28;20878;-67
2021/06/03 02:20:00;;;;;;;30.08;7.95;;;37.50;18.20;;;;;;5015525;28;20113;-67
2021/06/03 02:22:27;;;;;;;26.65;8.50;;;37.40;18.40;;;;;;5025076;28;20228;-67
2021/06/03 02:24:56;;;;;;;37.35;8.50;;;37.30;18.50;;;;;;5000847;28;20898;-69
2021/06/03 02:27:23;;;;;;;30.60;6.88;;;37.20;18.60;;;;;;4986763;28;20184;-69
2021/06/03 02:29:50;;;;;;;37.40;6.18;;;37.10;18.70;;;;;;4983649;28;20564;-66
2021/06/03 02:32:20;;;;;;;35.33;4.88;;;37.00;18.90;;;;;;4996684;28;20208;-68
2021/06/03 02:34:52;;;;;;;34.35;4.07;;;36.80;18.90;;;;;;4979423;28;20066;-66
2021/06/03 02:37:19;;;;;;;25.25;4.82;;;36.80;19.00;;;;;;4992399;28;20539;-69
2021/06/03 02:39:48;;;;;;;30.02;4.28;;;36.70;19.20;;;;;;4992683;28;20157;-68
2021/06/03 02:42:16;;;;;;;25.33;4.72;;;36.60;19.20;;;;;;5011897;28;21137;-67
2021/06/03 02:44:44;;;;;;;23.45;3.90;;;36.50;19.30;;;;;;5014836;28;20073;-67
2021/06/03 02:47:11;;;;;;;27.23;3.88;;;36.40;19.50;;;;;;5022413;28;20069;-67
2021/06/03 02:49:37;;;;;;;37.05;4.25;;;36.30;19.50;;;;;;5016515;28;20121;-68
2021/06/03 02:52:08;;;;;;;28.40;4.03;;;36.20;19.70;;;;;;5020162;28;20088;-67
2021/06/03 02:54:34;;;;;;;31.45;4.57;;;36.10;19.80;;;;;;5018238;28;20078;-67
2021/06/03 02:57:01;;;;;;;24.70;4.78;;;36.00;20.00;;;;;;5025329;28;20077;-67
2021/06/03 02:59:31;;;;;;;34.33;5.15;;;35.90;20.20;;;;;;5011468;28;20061;-68
2021/06/03 03:02:00;;;;;;;37.45;4.95;;;35.80;20.10;;;;;;5017913;28;20202;-69
2021/06/03 03:04:27;;;;;;;33.20;4.25;;;35.70;20.20;;;;;;4996339;28;20070;-68
2021/06/03 03:06:57;;;;;;;34.22;4.20;;;35.50;20.00;;;;;;5037292;28;20073;-69
2021/06/03 03:09:23;;;;;;;27.80;5.45;;;35.50;29.40;;;;;;5021831;28;20036;-69
2021/06/03 03:11:50;;;;;;;37.85;5.50;;;35.50;20.10;;;;;;5011753;28;20076;-69
2021/06/03 03:14:16;;;;;;;32.70;6.03;;;35.50;20.30;;;;;;5018833;28;21203;-69
2021/06/03 03:16:43;;;;;;;31.40;7.28;;;35.40;20.40;;;;;;4990455;28;20084;-71
2021/06/03 03:19:09;;;;;;;26.05;6.97;;;35.30;20.50;;;;;;4998721;28;20216;-69
2021/06/03 03:21:36;;;;;;;29.80;6.88;;;35.20;20.40;;;;;;5028404;28;21396;-69
2021/06/03 03:24:03;;;;;;;36.90;6.72;;;35.10;20.60;;;;;;5027775;28;20151;-68
2021/06/03 03:26:29;;;;;;;37.10;6.50;;;35.10;20.70;;;;;;5030345;28;20065;-69
2021/06/03 03:28:56;;;;;;;30.73;5.60;;;35.00;20.80;;;;;;5028930;28;21166;-72
2021/06/03 03:31:24;;;;;;;32.97;5.53;;;34.90;20.80;;;;;;5044193;28;20073;-69
2021/06/03 03:33:51;;;;;;;40.30;5.57;;;34.80;20.90;;;;;;5016540;28;20061;-70
2021/06/03 03:36:18;;;;;;;31.63;6.05;;;34.70;20.90;;;;;;5023774;28;20118;-69
2021/06/03 03:38:44;;;;;;;30.10;5.60;;;34.60;20.70;;;;;;5033388;28;21126;-69
2021/06/03 03:41:11;;;;;;;32.58;5.10;;;34.60;20.70;;;;;;5034060;28;20171;-70
2021/06/03 03:43:37;;;;;;;23.35;5.30;;;34.50;20.80;;;;;;5028563;28;20073;-69
2021/06/03 03:46:04;;;;;;;36.97;5.18;;;34.40;20.70;;;;;;5020838;28;20128;-70
2021/06/03 03:48:31;;;;;;;28.67;4.47;;;34.30;20.70;;;;;;5008910;28;20077;-70
2021/06/03 03:50:58;;;;;;;27.60;4.10;;;34.30;20.50;;;;;;5004618;28;20108;-68
2021/06/03 03:53:24;;;;;;;40.97;5.13;;;34.20;20.40;;;;;;5012234;28;20069;-69
2021/06/03 03:55:51;;;;;;;34.53;5.00;;;34.20;20.40;;;;;;5031949;28;20069;-68
2021/06/03 03:58:17;;;;;;;27.75;6.00;;;34.10;20.30;;;;;;5017723;28;20148;-70
2021/06/03 04:00:44;;;;;;;37.78;6.90;;;34.10;20.30;;;;;;5031578;28;21014;-68
2021/06/03 04:03:11;;;;;;;31.30;6.15;;;34.10;20.30;;;;;;5033696;28;20104;-70
2021/06/03 04:05:37;;;;;;;27.50;5.32;;;34.00;20.20;;;;;;5037901;28;20671;-69
2021/06/03 04:08:05;;;;;;;31.73;4.80;;;33.90;20.00;;;;;;5005599;28;20086;-68
2021/06/03 04:10:33;;;;;;;28.25;4.97;;;33.90;20.00;;;;;;5032728;28;20077;-71
2021/06/03 04:13:00;;;;;;;28.30;3.88;;;33.80;20.00;;;;;;5032681;28;21208;-68
2021/06/03 04:15:27;;;;;;;22.73;3.95;;;33.80;20.00;;;;;;5031594;28;20155;-68
2021/06/03 04:17:53;;;;;;;26.77;4.72;;;33.80;20.00;;;;;;5038492;28;20120;-69
2021/06/03 04:20:21;;;;;;;32.60;4.93;;;33.80;20.00;;;;;;5018406;28;20207;-68
2021/06/03 04:22:50;;;;;;;28.95;6.13;;;33.70;19.90;;;;;;5040530;28;20170;-68
2021/06/03 04:25:16;;;;;;;26.95;6.43;;;33.60;19.80;;;;;;5033027;28;20108;-69
2021/06/03 04:27:43;;;;;;;50.00;7.55;;;33.60;19.70;;;;;;5038656;28;20057;-69
2021/06/03 04:30:13;;;;;;;38.08;6.68;;;33.60;19.60;;;;;;5039234;28;20076;-69
2021/06/03 04:32:41;;;;;;;24.83;5.57;;;33.50;19.60;;;;;;5024163;28;20073;-68
2021/06/03 04:35:08;;;;;;;27.73;5.07;;;33.50;19.50;;;;;;5055419;28;20057;-70
2021/06/03 04:37:35;;;;;;;27.98;4.00;;;33.50;19.40;;;;;;5041775;28;20074;-70
2021/06/03 04:40:03;;;;;;;21.58;3.58;;;33.40;19.30;;;;;;5039275;28;20069;-68
2021/06/03 04:42:30;;;;;;;19.45;2.63;;;33.30;19.30;;;;;;5031049;28;21507;-70
2021/06/03 04:44:56;;;;;;;20.50;2.67;;;33.30;19.20;;;;;;5026923;28;20073;-71
2021/06/03 04:47:23;;;;;;;25.17;3.92;;;33.30;19.20;;;;;;5035960;28;20515;-73
2021/06/03 04:49:50;;;;;;;23.98;3.42;;;33.30;19.20;;;;;;5028421;28;20189;-68
2021/06/03 04:52:25;;;;;;;25.98;3.63;;;33.20;19.20;;;;;;5035827;28;20069;-69
2021/06/03 04:55:01;;;;;;;31.60;3.17;;;33.20;19.10;;;;;;5019221;28;20160;-69
2021/06/03 04:57:29;;;;;;;14.40;2.72;;;33.10;19.00;;;;;;5019807;28;20108;-68
2021/06/03 04:59:56;;;;;;;17.92;2.97;;;33.10;18.90;;;;;;5009590;28;20074;-69
2021/06/03 05:02:24;;;;;;;24.60;2.50;;;33.10;18.80;;;;;;5028252;28;20101;-70
2021/06/03 05:04:51;;;;;;;20.70;3.40;;;33.10;18.80;;;;;;5013120;28;20884;-68
2021/06/03 05:07:18;;;;;;;15.80;2.70;;;33.10;18.80;;;;;;5036916;28;20076;-69
2021/06/03 05:09:46;;;;;;;22.65;2.65;;;33.00;18.80;;;;;;5017819;28;20782;-69
2021/06/03 05:12:13;;;;;;;18.95;3.10;;;32.90;18.70;;;;;;5018368;28;20732;-69
2021/06/03 05:14:40;;;;;;;16.27;3.17;;;32.90;18.80;;;;;;5034988;28;20061;-69
2021/06/03 05:17:07;;;;;;;17.85;2.80;;;32.80;18.70;;;;;;5035359;28;20747;-67
2021/06/03 05:19:34;;;;;;;19.35;2.72;;;32.80;18.90;;;;;;5012505;28;20129;-68
2021/06/03 05:22:01;;;;;;;18.33;2.65;;;32.70;19.00;;;;;;5042256;28;20124;-69
2021/06/03 05:24:28;;;;;;;32.08;3.78;;;32.70;19.10;;;;;;5033649;28;20097;-68
2021/06/03 05:26:55;;;;;;;18.23;3.75;;;32.70;19.20;;;;;;5033843;28;20073;-68
2021/06/03 05:29:22;;;;;;;17.38;4.80;;;32.60;19.20;;;;;;5018467;28;20092;-68
2021/06/03 05:31:48;;;;;;;19.48;4.38;;;32.60;19.30;;;;;;5038744;28;20116;-69
2021/06/03 05:34:15;;;;;;;19.35;5.93;;;32.50;19.40;;;;;;5018152;28;20107;-68
2021/06/03 05:36:42;;;;;;;17.02;6.95;;;32.50;19.50;;;;;;5031464;28;20148;-70
2021/06/03 05:39:09;;;;;;;15.70;6.60;;;32.50;19.40;;;;;;5028810;28;20061;-69
2021/06/03 05:41:37;;;;;;;20.52;7.00;;;32.40;20.00;;;;;;5021345;28;20713;-69
2021/06/03 05:44:08;;;;;;;20.38;7.25;;;32.40;20.20;;;;;;5035318;28;20084;-70
2021/06/03 05:46:35;;;;;;;23.83;7.95;;;32.20;20.50;;;;;;5039273;28;20080;-69
2021/06/03 05:49:02;;;;;;;27.77;8.30;;;32.20;20.60;;;;;;5047021;28;20065;-70
2021/06/03 05:51:30;;;;;;;20.05;7.85;;;32.20;21.40;;;;;;5043349;28;20101;-70
2021/06/03 05:53:56;;;;;;;23.65;8.10;;;32.10;21.00;;;;;;5041225;28;20076;-70
2021/06/03 05:56:25;;;;;;;25.25;7.68;;;32.10;21.30;;;;;;5037586;28;20897;-69
2021/06/03 05:58:55;;;;;;;18.02;6.75;;;32.00;21.30;;;;;;5013569;28;20161;-70
2021/06/03 06:01:23;;;;;;;21.35;6.80;;;32.00;21.50;;;;;;5040749;28;20803;-70
2021/06/03 06:06:28;;;;;;;29.42;8.65;;;31.90;21.70;;;;;;5037115;28;20072;-68
2021/06/03 06:09:00;;;;;;;21.35;8.40;;;31.90;21.70;;;;;;5038729;28;20483;-69
2021/06/03 06:11:33;;;;;;;20.92;8.73;;;31.80;21.80;;;;;;5044469;28;20073;-69
2021/06/03 06:14:00;;;;;;;29.15;8.82;;;31.80;22.00;;;;;;5021759;28;20093;-69
2021/06/03 06:16:27;;;;;;;20.98;8.85;;;31.70;22.00;;;;;;5021167;28;20069;-69
2021/06/03 06:18:57;;;;;;;21.83;9.13;;;31.60;22.20;;;;;;5037875;28;20907;-69
2021/06/03 06:21:25;;;;;;;24.73;8.45;;;31.50;22.40;;;;;;5056143;28;20789;-69
2021/06/03 06:23:52;;;;;;;18.52;7.63;;;31.50;22.50;;;;;;5051705;28;20440;-71
2021/06/03 06:26:23;;;;;;;21.15;8.10;;;31.50;22.50;;;;;;5035787;28;20488;-70
2021/06/03 06:28:51;;;;;;;23.92;8.30;;;31.40;22.70;;;;;;5039372;28;20073;-69
2021/06/03 06:31:19;;;;;;;29.83;8.63;;;31.30;22.70;;;;;;5023609;28;20723;-70
2021/06/03 06:33:47;;;;;;;20.98;9.40;;;31.20;22.90;;;;;;5018072;28;20096;-70
2021/06/03 06:36:14;;;;;;;25.38;9.45;;;31.10;23.00;;;;;;5040752;28;20072;-69
2021/06/03 06:38:42;;;;;;;29.58;10.55;;;31.00;23.10;;;;;;5024746;28;20741;-69
2021/06/03 06:41:09;;;;;;;23.80;10.05;;;31.00;23.20;;;;;;5003664;28;20467;-69
2021/06/03 06:43:37;;;;;;;26.50;10.55;;;30.90;23.20;;;;;;5045364;28;20084;-70
2021/06/03 06:46:05;;;;;;;25.88;11.07;;;30.90;23.30;;;;;;5039601;28;20267;-70
2021/06/03 06:48:35;;;;;;;35.83;11.73;;;30.80;23.30;;;;;;5026926;28;20145;-70
2021/06/03 06:51:02;;;;;;;29.45;11.50;;;30.80;23.50;;;;;;5006686;28;20169;-70
2021/06/03 06:53:29;;;;;;;20.40;10.88;;;30.80;23.40;;;;;;5019470;28;20077;-70
2021/06/03 06:55:55;;;;;;;25.75;10.70;;;30.80;23.60;;;;;;5039654;28;20065;-70
2021/06/03 06:58:22;;;;;;;22.42;9.82;;;30.70;23.90;;;;;;5040054;28;21042;-70
2021/06/03 07:00:49;;;;;;;19.38;8.43;;;30.60;23.60;;;;;;5044803;28;20083;-70
2021/06/03 07:03:16;;;;;;;17.67;6.78;;;30.50;23.70;;;;;;5038124;28;20100;-70
2021/06/03 07:05:46;;;;;;;19.75;5.57;;;30.60;23.90;;;;;;5043606;28;20065;-70
2021/06/03 07:08:13;;;;;;;12.15;3.78;;;30.50;23.80;;;;;;5052998;28;20060;-70
2021/06/03 07:10:40;;;;;;;15.20;3.67;;;30.40;24.10;;;;;;5026161;28;20081;-70
2021/06/03 07:13:10;;;;;;;14.35;3.78;;;30.30;24.20;;;;;;5020104;28;20158;-70
2021/06/03 07:15:37;;;;;;;15.55;4.07;;;30.20;24.30;;;;;;5046189;28;20069;-69
2021/06/03 07:18:04;;;;;;;16.52;4.47;;;30.40;46.50;;;;;;5036748;28;20778;-68
2021/06/03 07:20:30;;;;;;;17.15;3.83;;;30.00;24.40;;;;;;5029978;28;20113;-68
2021/06/03 07:23:04;;;;;;;15.02;4.22;;;30.20;26.00;;;;;;5024192;28;20089;-68
2021/06/03 07:25:33;;;;;;;13.90;4.32;;;29.90;24.70;;;;;;5036546;28;20071;-68
2021/06/03 07:28:00;;;;;;;19.00;5.00;;;29.90;25.10;;;;;;5018547;28;20168;-68
2021/06/03 07:30:27;;;;;;;16.73;5.35;;;29.90;37.40;;;;;;5028804;28;20130;-68
2021/06/03 07:32:55;;;;;;;18.80;5.45;;;29.80;25.30;;;;;;5024308;28;20088;-68
2021/06/03 07:35:22;;;;;;;17.73;4.88;;;29.80;25.30;;;;;;5016747;28;20073;-68
2021/06/03 07:37:49;;;;;;;12.68;4.82;;;29.80;25.50;;;;;;5033151;28;20068;-68
2021/06/03 07:40:20;;;;;;;17.05;6.07;;;29.70;25.60;;;;;;5030790;28;20070;-68
2021/06/03 07:42:47;;;;;;;15.95;6.25;;;29.60;25.80;;;;;;5036739;28;20116;-68
2021/06/03 07:45:15;;;;;;;14.60;6.10;;;29.60;25.90;;;;;;5021759;28;20174;-68
2021/06/03 07:47:42;;;;;;;15.45;6.60;;;29.50;26.10;;;;;;5028208;28;20111;-68
2021/06/03 07:50:11;;;;;;;15.68;7.05;;;29.40;26.20;;;;;;5031367;28;20717;-68
2021/06/03 07:52:37;;;;;;;21.33;6.80;;;29.40;26.30;;;;;;5031761;28;20134;-68
2021/06/03 07:55:07;;;;;;;20.60;6.88;;;29.40;26.40;;;;;;5020497;28;20069;-68
2021/06/03 07:57:34;;;;;;;20.55;6.97;;;29.40;26.40;;;;;;5033273;28;20789;-68
2021/06/03 08:00:03;;;;;;;17.63;4.90;;;29.30;26.70;;;;;;5033111;28;20147;-68
2021/06/03 08:02:29;;;;;;;13.05;4.00;;;29.30;26.90;;;;;;5032684;28;20098;-69
2021/06/03 08:04:56;;;;;;;17.33;4.35;;;29.30;27.00;;;;;;5032846;28;20795;-68
2021/06/03 08:07:22;;;;;;;14.10;4.65;;;29.30;27.10;;;;;;5035669;28;20640;-68
2021/06/03 08:09:49;;;;;;;20.17;4.55;;;29.30;27.40;;;;;;5023450;28;20755;-68
2021/06/03 08:12:15;;;;;;;17.75;5.40;;;29.30;28.00;;;;;;5026521;28;20073;-68
2021/06/03 08:14:42;;;;;;;23.60;7.15;;;29.20;27.80;;;;;;5035486;28;20061;-68
2021/06/03 08:17:09;;;;;;;24.80;5.80;;;29.10;27.90;;;;;;5029908;28;20133;-67
2021/06/03 08:19:36;;;;;;;21.88;4.97;;;29.10;27.90;;;;;;5038394;28;20104;-67
2021/06/03 08:22:03;;;;;;;17.85;3.90;;;29.10;28.30;;;;;;5045415;28;20108;-67
2021/06/03 08:24:30;;;;;;;13.50;3.35;;;28.90;28.70;;;;;;5047715;28;20562;-68
2021/06/03 08:26:57;;;;;;;9.75;3.78;;;28.80;28.70;;;;;;5028510;28;20595;-68
2021/06/03 08:29:23;;;;;;;14.35;4.75;;;28.70;28.90;;;;;;5025535;28;21008;-68
2021/06/03 08:31:51;;;;;;;20.58;4.07;;;28.70;29.00;;;;;;5054135;28;20103;-68
2021/06/03 08:34:18;;;;;;;14.90;3.20;;;28.60;29.30;;;;;;5050895;28;20061;-68
2021/06/03 08:36:45;;;;;;;11.98;3.50;;;28.50;29.70;;;;;;5037951;28;20998;-68
2021/06/03 08:39:13;;;;;;;15.82;3.17;;;28.40;30.10;;;;;;5042523;28;21187;-68
2021/06/03 08:41:45;;;;;;;11.20;2.97;;;28.30;30.80;;;;;;5018976;28;20586;-67
2021/06/03 08:44:12;;;;;;;13.93;2.50;;;28.30;30.90;;;;;;5043138;28;20383;-67
2021/06/03 08:46:40;;;;;;;19.63;2.90;;;28.20;31.30;;;;;;5043440;28;20835;-68
2021/06/03 08:49:08;;;;;;;13.55;3.03;;;28.20;31.80;;;;;;5035823;28;20100;-68
2021/06/03 08:51:36;;;;;;;15.55;3.47;;;28.10;31.90;;;;;;5048786;28;20831;-68
2021/06/03 08:54:03;;;;;;;19.10;3.03;;;28.00;32.20;;;;;;5030873;28;20081;-68
2021/06/03 08:56:30;;;;;;;11.52;2.45;;;28.00;32.50;;;;;;5040266;28;20465;-68
2021/06/03 08:59:01;;;;;;;11.68;2.53;;;27.80;33.10;;;;;;5041724;28;20159;-67
2021/06/03 09:01:29;;;;;;;10.07;2.30;;;27.70;34.00;;;;;;5043148;28;20076;-68
2021/06/03 09:03:57;;;;;;;21.08;3.13;;;27.70;34.70;;;;;;5045852;28;20069;-68
2021/06/03 09:06:24;;;;;;;9.70;2.53;;;27.60;35.70;;;;;;5044710;28;20549;-68
2021/06/03 09:09:01;;;;;;;12.85;2.95;;;27.40;36.30;;;;;;5044450;28;20077;-68
2021/06/03 09:11:29;;;;;;;11.52;3.80;;;27.50;36.80;;;;;;5022363;28;20095;-67
2021/06/03 09:14:02;;;;;;;19.65;4.10;;;27.40;37.00;;;;;;5011824;28;20070;-68
2021/06/03 09:16:30;;;;;;;14.95;4.40;;;27.50;37.30;;;;;;5046323;28;20614;-68
2021/06/03 09:18:58;;;;;;;19.58;4.55;;;27.50;37.30;;;;;;5041246;28;20092;-68
2021/06/03 09:21:26;;;;;;;13.00;4.22;;;27.50;37.50;;;;;;5033053;28;20069;-68
2021/06/03 09:24:05;;;;;;;13.15;4.30;;;27.50;37.50;;;;;;5020722;28;20704;-68
2021/06/03 09:26:36;;;;;;;21.95;5.03;;;27.50;37.70;;;;;;5026357;28;20126;-68
2021/06/03 09:29:05;;;;;;;16.35;5.93;;;27.60;38.30;;;;;;5007976;28;20231;-69
2021/06/03 09:31:34;;;;;;;15.43;6.90;;;27.60;39.00;;;;;;5027935;28;20069;-67
2021/06/03 09:34:15;;;;;;;13.63;6.25;;;27.50;39.50;;;;;;5036783;28;20085;-67
2021/06/03 09:36:51;;;;;;;15.50;7.15;;;27.60;39.90;;;;;;5040929;28;20076;-67
2021/06/03 09:39:37;;;;;;;;;;;27.50;40.20;;;;;;5039178;28;20082;-67
2021/06/03 09:42:08;;;;;;;14.30;6.05;;;27.50;40.10;;;;;;5033452;28;20079;-66
2021/06/03 09:44:46;;;;;;;15.73;6.45;;;27.50;40.10;;;;;;5029129;28;20068;-67
2021/06/03 09:47:15;;;;;;;17.20;6.60;;;27.30;40.90;;;;;;5035729;28;20095;-67
2021/06/03 09:49:55;;;;;;;21.63;6.32;;;27.30;42.20;;;;;;5021788;28;20105;-68
2021/06/03 09:52:25;;;;;;;17.70;5.90;;;27.20;42.90;;;;;;5018913;28;20060;-68
2021/06/03 09:54:55;;;;;;;19.30;5.57;;;27.20;43.20;;;;;;5036042;28;20814;-67
2021/06/03 09:57:32;;;;;;;15.82;4.82;;;27.20;44.50;;;;;;5035521;28;20072;-67
2021/06/03 10:00:07;;;;;;;;;;;27.20;45.20;;;;;;5035315;28;20081;-68
2021/06/03 10:02:36;;;;;;;13.43;4.32;;;27.10;45.70;;;;;;5041273;28;19980;-68
2021/06/03 10:05:14;;;;;;;12.45;4.07;;;27.00;46.30;;;;;;5037602;28;20638;-68
2021/06/03 10:07:57;;;;;;;12.50;4.28;;;27.00;45.90;;;;;;5033289;28;20072;-68
2021/06/03 10:10:25;;;;;;;14.55;4.78;;;27.00;45.70;;;;;;5024195;28;20169;-68
2021/06/03 10:12:52;;;;;;;17.15;4.10;;;27.00;46.00;;;;;;5029276;28;20157;-68
2021/06/03 10:15:25;;;;;;;14.65;3.47;;;27.00;47.00;;;;;;5035805;28;20061;-68
2021/06/03 10:17:54;;;;;;;13.15;2.88;;;26.90;47.70;;;;;;5037309;28;20126;-68
2021/06/03 10:20:40;;;;;;;15.82;3.55;;;26.90;48.40;;;;;;5042836;28;20108;-68
2021/06/03 10:23:11;;;;;;;15.07;3.85;;;26.80;49.00;;;;;;5048197;28;20097;-68
2021/06/03 10:25:39;;;;;;;15.00;3.50;;;26.70;49.40;;;;;;5047284;28;20072;-68
2021/06/03 10:28:10;;;;;;;12.13;4.00;;;26.60;50.10;;;;;;5050125;28;20076;-68
2021/06/03 10:30:40;;;;;;;14.80;3.42;;;26.50;50.70;;;;;;5053675;28;20656;-68
2021/06/03 10:33:13;;;;;;;13.82;3.45;;;26.50;50.90;;;;;;5051739;28;20254;-68
2021/06/03 10:35:42;;;;;;;9.05;2.72;;;26.40;51.20;;;;;;5051646;28;20096;-68
2021/06/03 10:38:10;;;;;;;16.30;3.72;;;26.40;51.60;;;;;;5040730;28;20209;-68
2021/06/03 10:40:43;;;;;;;10.40;2.70;;;26.40;51.90;;;;;;5037563;28;20064;-68
2021/06/03 10:43:10;;;;;;;9.35;2.63;;;26.40;51.90;;;;;;5044346;28;20400;-68
2021/06/03 10:45:39;;;;;;;13.23;3.15;;;26.40;52.20;;;;;;5048346;28;20096;-67
2021/06/03 10:48:06;;;;;;;15.38;2.78;;;26.30;52.40;;;;;;5035794;28;20073;-67
2021/06/03 10:50:45;;;;;;;7.25;2.78;;;26.30;52.60;;;;;;5046956;28;20065;-67
2021/06/03 10:53:14;;;;;;;12.40;2.97;;;26.20;52.90;;;;;;5036188;28;20059;-67
2021/06/03 10:55:47;;;;;;;7.80;2.80;;;26.10;53.40;;;;;;5043912;28;20614;-67
2021/06/03 10:58:15;;;;;;;15.23;2.55;;;26.10;53.50;;;;;;5019600;28;20466;-68
2021/06/03 11:00:47;;;;;;;10.27;2.88;;;26.10;53.20;;;;;;5040963;28;20214;-67
2021/06/03 11:03:21;;;;;;;13.75;2.45;;;26.10;53.30;;;;;;5041474;28;20767;-67
2021/06/03 11:05:59;;;;;;;15.13;3.33;;;26.00;53.50;;;;;;5007063;28;20075;-67
2021/06/03 11:08:41;;;;;;;15.48;2.85;;;26.00;53.70;;;;;;5037672;28;20693;-67
2021/06/03 11:11:11;;;;;;;12.95;3.30;;;26.00;53.70;;;;;;5037818;28;20073;-67
2021/06/03 11:13:47;;;;;;;13.65;3.70;;;25.80;54.00;;;;;;5044821;28;20144;-67
2021/06/03 11:16:39;;;;;;;11.05;3.88;;;25.70;54.20;;;;;;5035678;28;20076;-67
2021/06/03 11:19:08;;;;;;;10.50;3.67;;;25.60;54.80;;;;;;5014526;28;20110;-67
2021/06/03 11:21:35;;;;;;;14.35;4.00;;;25.50;55.10;;;;;;4998491;28;20074;-67
2021/06/03 11:24:07;;;;;;;16.45;4.53;;;25.50;55.20;;;;;;5028128;28;20077;-67
2021/06/03 11:26:43;;;;;;;14.57;3.33;;;25.60;55.60;;;;;;5023087;28;20101;-68
2021/06/03 11:29:31;;;;;;;13.95;3.70;;;25.60;55.60;;;;;;5018486;28;20083;-67
2021/06/03 11:32:06;;;;;;;13.98;3.85;;;25.60;55.50;;;;;;5023927;28;20815;-68
2021/06/03 11:34:39;;;;;;;13.10;2.80;;;25.60;55.50;;;;;;5028165;28;20076;-68
2021/06/03 11:37:11;;;;;;;12.95;3.20;;;25.50;55.40;;;;;;5024740;28;20923;-67
2021/06/03 11:39:50;;;;;;;9.85;2.70;;;25.50;55.60;;;;;;5028223;28;20138;-67
2021/06/03 11:42:30;;;;;;;15.38;2.55;;;25.30;54.90;;;;;;5022052;28;21266;-67
2021/06/03 11:45:03;;;;;;;10.15;2.30;;;25.40;54.60;;;;;;5026381;28;20066;-67
2021/06/03 11:47:37;;;;;;;8.38;1.63;;;25.30;54.30;;;;;;5018875;28;20065;-67
2021/06/03 11:50:17;;;;;;;8.82;2.20;;;25.20;54.10;;;;;;5034071;28;20165;-67
2021/06/03 11:53:04;;;;;;;11.45;2.05;;;25.10;53.40;;;;;;5023008;28;20078;-67
2021/06/03 11:55:37;;;;;;;11.13;2.03;;;25.20;52.90;;;;;;5008067;28;20127;-67
2021/06/03 11:58:09;;;;;;;10.75;2.40;;;25.10;52.30;;;;;;5009182;28;20083;-67
2021/06/03 12:01:06;;;;;;;8.70;2.30;;;25.10;52.30;;;;;;5025320;28;20070;-67
2021/06/03 12:03:34;;;;;;;10.25;2.42;;;25.00;52.50;;;;;;4991120;28;20184;-67
2021/06/03 12:06:07;;;;;;;9.48;1.90;;;25.00;52.50;;;;;;5025839;28;20082;-67
2021/06/03 12:08:37;;;;;;;8.63;2.00;;;24.90;52.60;;;;;;5027245;28;20077;-67
2021/06/03 12:11:05;;;;;;;9.13;1.90;;;24.90;52.50;;;;;;5027178;28;20069;-67
2021/06/03 12:13:32;;;;;;;8.68;2.00;;;24.90;52.20;;;;;;5027318;28;20072;-67
2021/06/03 12:15:59;;;;;;;9.95;2.20;;;24.90;52.10;;;;;;5030578;28;20703;-67
2021/06/03 12:18:34;;;;;;;9.38;1.92;;;24.70;52.40;;;;;;5029996;28;20214;-67
2021/06/03 12:21:03;;;;;;;12.35;2.33;;;24.70;52.40;;;;;;5049220;28;20068;-67
2021/06/03 12:23:30;;;;;;;9.73;2.38;;;24.70;52.50;;;;;;5033281;28;20093;-67
2021/06/03 12:25:57;;;;;;;10.10;3.47;;;24.60;52.40;;;;;;5040923;28;20732;-67
2021/06/03 12:28:24;;;;;;;11.63;4.05;;;24.60;52.70;;;;;;5045308;28;20077;-67
2021/06/03 12:30:51;;;;;;;11.52;5.07;;;24.60;52.70;;;;;;5033249;28;20180;-67
2021/06/03 12:33:29;;;;;;;19.00;6.10;;;24.50;52.90;;;;;;5036849;28;20076;-67
2021/06/03 12:36:06;;;;;;;19.00;5.28;;;24.60;53.00;;;;;;5039202;28;20076;-67
2021/06/03 12:38:34;;;;;;;12.95;3.38;;;24.50;53.40;;;;;;5040714;28;20108;-67
2021/06/03 12:41:05;;;;;;;13.82;3.60;;;24.50;53.60;;;;;;5019966;28;20158;-67
2021/06/03 12:43:43;;;;;;;11.95;2.97;;;24.40;54.00;;;;;;5037509;28;20093;-67
2021/06/03 12:46:11;;;;;;;14.52;4.20;;;24.40;55.00;;;;;;5035791;28;20076;-68
2021/06/03 12:48:38;;;;;;;22.17;4.43;;;24.40;55.20;;;;;;5023960;28;20161;-67
2021/06/03 12:51:13;;;;;;;21.20;5.00;;;24.40;55.80;;;;;;5029007;28;20066;-67
2021/06/03 12:53:47;;;;;;;15.95;5.35;;;24.50;57.80;;;;;;5038074;28;20137;-67